Timeline UpdatesTrip UpdatesNews PostsPvt PostsTravel TipsAdmin PostsConv PostsFollowed PostsChat RequestsBlog PostsPNR Posts

Disclaimer
Search
 
 
Tue Sep 2, 2014 00:19:09 ISTHomeTrainsΣChainsAtlasPNRForumGalleryNewsFAQTripsMembersLoginFeedback
No Recent News for this Train
Other Trains in the News **new
Latest...
.
Sat Jul 30, 2011 (04:46AM)
⇐ Return Journey: Train# 57562

57561/Kacheguda - Manmad Passenger (UnReserved)

OLD Time-Table. New TT will soon be available.
Sep 11 2013 (10:15PM)
Change Departure Station:
Change Arrival Station:
Post a Train Travel TipPost a Train Travel Tip **new
Post a Comment/Question/Picture/VideoPost a Comment/Question/Picture/Video
Pantry/Catering
✕ NO Pantry Car
✓ Catering Avbl
RSA - Rake Sharing
57542-57562-57561-57590-57541-57558-57557
Rake/Coach Composition
LOCO-SLR-GEN-GEN-GEN-GEN-GEN-GEN-GEN-GEN-GEN-GEN-SLR.
Loco
MLY WDM 2/3A or WDG 3A.
News    PNR    Forum    Time-Table    Availability    Fare Chart    Map    Arr/Dep History    Trips    Gallery    ΣChains    X/O    Timeline    
Travel Time: 7h 5m    16 halts    Distance: 194 km    Avg Speed: 27 km/hr
Type: Passenger
Zone: SCR/South Central
Departs @ 16:00
Platform# ???
SMTWTFS
Kodi/KODI 
Arrives @ 23:05
Platform# 6
SMTWTFS
Manmad Junction/MMR 

16 halts. 17 intermediate Stations between Kodi and Manmad Junction

Show ALL intermediate Stations  

#CodeStation NameX/OArrivesAvgDepartsAvgHaltPFDay#KmSpeedElevZoneAddress
1KCGHyderabad Kacheguda (5)  -04:50-11-430.258494mSCRHyderabad - 500027, Telangana
2VARVidya Nagar (2)  04:52-04:53-1m--1-428.344505mSCRHyderabad, Telangana
3JOOJamai Osmania (2)  04:55-04:56-1m--1-426.836515mSCRHyderabad, Telangana
4ATCArts College (2)X  04:57-04:58-1m--1-426.233521mSCRHyderabad, Telangana
5STPDSitafalmandi (4)  05:00-05:01-1m21-425.180533mSCRSecunderabad, Telangana
6LGDHLalaguda Gate (2)  05:03-05:04-1m--1-422.44543mSCRSecunderabad, Telangana
7MJFMalkajgiri (3)X  05:18-05:19-1m31-421.527535mSCRSecunderabad, Telangana
8DYEDayanand Nagar (2)  05:21-05:22-1m--1-420.636537mSCRSecunderabad, Telangana
9SFXSafilguda (2)  05:23-05:24-1m--1-420.034544mSCRSecunderabad, Telangana
10RKORamakistapuram Gate (2)  05:27-05:28-1m--1-418.333561mSCRSecunderabad, Telangana
11AMQAmmuguda Halt (2)  05:30-05:31-1m--1-417.283569mSCRSecunderabad, Telangana
12CVBCavalry Barracks (3)  05:32-05:33-1m31-415.824575mSCRSecunderabad, Telangana
13ALWAlwal (2)  05:36-05:37-1m--1-414.648580mSCRSecunderabad, Telangana
14BOZBolarum Bazar (2)  05:39-05:40-1m--1-412.913584mSCRSecunderabad, Telangana
15BMOBolarum (3)X  05:48-05:49-1m11-411.329597mSCRSecunderabad, Telangana
16GDPLGundla Pochampally (1)X  06:00-06:01-1m--1-405.977601mSCRRangareddy Dist., Telangana
17GWVGowdavalli (1)  06:05-06:06-1m11-400.823601mSCRRangareddy Dist., Telangana
18MEDMedchal (3)  06:15-06:16-1m21-397.479602mSCRRangareddy Dist., Telangana
19DBVDabilpur (1)  06:19-06:20-1m11-393.480611mSCRRangareddy Dist., Telangana
20KUCHKuchavaram Halt (1)X  06:25-06:26-1m11-386.820595mSCRRangareddy, Telangana
21MOBManoharabad (2)  06:34-06:35-1m--1-384.1-593mSCRMedak Dist., Telangana
22PAPMPalata Potaram (1)  06:39-06:40-1m11-371.626522mSCRMedak Dist., Telangana
23BMPLBrahmanapalli (1)  06:44-06:45-1m11-369.921528mSCRMedak Dist., Telangana
24MEMasaipet (2)X  06:53-06:54-1m--1-367.046520mSCRMedak Dist., Telangana
25SHANSrinivasa NagarX  06:58-06:59-1m--1-363.932522mSCRMedak Dist., Telangana
26WDRWadiaram (2)  07:08-07:09-1m--1-359.266547mSCRMedak Dist., Telangana
27MZLMirzapalli (1)  07:15-07:16-1m11-352.629530mSCRMedak Dist., Telangana
28AKEAkanapet (1)X  07:38-07:39-1m11-341.837566mSCRMedak District., Telangana
29BKUBhiknur  07:49-07:50-1m--1-335.861575mSCRNizamabad Dist., Telangana
30THPRTippapur (1)  07:54-07:55-1m11-331.755549mSCRNizamabad Dist., Telangana
31TMDTalmadla  08:01-08:02-1m--1-326.123559mSCRNizamabad Dist., Telangana
32KMCKamareddi (3)  08:28-08:30-2m11-316.175528mSCRNizamabad Dist., Telangana
33UPWUppalavai  08:39-08:40-1m--1-304.957529mSCRNizamabad Dist., Telangana
34SCPSirnapalli  08:51-08:52-1m--1-294.553456mSCRNizamabad Dist., Telangana
35IDLIndalvai (1)X  09:01-09:02-1m11-286.647439mSCRNizamabad Dist., Telangana
36DHPDichpalliX  09:14-09:15-1m--1-277.139424mSCRNizamabad Dist., Telangana
37NZBNizamabad (3)  09:35-09:40-5m31-264.347384mSCRNizamabad, Telangana
38JKMJankampet Junction (1)  09:48-09:49-1m11-258.063391mSCRJankampet Junction nizamabad dist., Telangana
39NVTNavipet (2)  09:58-09:59-1m--1-248.670374mSCRNizamabad Dist., Telangana
40FKBFakrabad (1)  10:05-10:06-1m11-241.618348mSCRNizamabad Dist., Telangana
41BSXBasar (2)X  10:28-10:30-2m21-234.959358mSCRDist Adilabad, Telangana
42DABDharmabad (2)  10:40-10:41-1m--1-225.078354mSCRDegaon, Maharashtra
43SQESamarala Halt  10:46-10:47-1m--1-218.654360mSCRDharmabad, Maharashtra
44KEKKarkheli  10:55-10:56-1m--1-211.355358mSCRBiloli, Maharashtra
45BLSABolsa  11:04-11:05-1m--1-204.056361mSCRDharmabad, Maharashtra
46UMRIUmri (1)  11:14-11:15-1m11-195.694381mSCRHuzur Sahib Nanded, Maharashtra
47SLGHShelgaon Halt  11:20-11:21-1m--1-187.833378mSCRMudkhed, Maharashtra
48SVNSivungaon  11:29-11:30-1m--1-183.317395mSCRHuzur Sahib Nanded, Maharashtra
49MUEMudkhed Junction (4)  11:55-11:57-2m--1-176.161378mSCRMudkhed, Maharashtra
50MGCMugat  12:06-12:07-1m--1-166.940360mSCRHuzur Sahib Nanded, Maharashtra
51PARDPathradX  12:12-12:13-1m--1-163.643363mSCRHuzur Sahib Nanded, Maharashtra
52MTDIMaltekdi  12:23-12:24-1m--1-156.528362mSCRNanded, Maharashtra
53NEDHazur Sahib Nanded (4)X  12:30-12:35-5m--1-153.843366mSCRNanded, Maharashtra
54WNGWanegaon  12:44-12:45-1m--1-147.331371mSCRChudawa, Maharashtra
55LBGLimbgaon (2)X  12:54-12:55-1m--1-142.664390mSCRHuzur Sahib Nanded, Maharashtra
56CRUChudawa (1)X  13:04-13:05-1m11-133.040392mSCRHingoli, Maharashtra
57PAUPurna Junction (4)X  13:20-13:25-5m--1-123.152384mSCRPurna, Maharashtra
58MQLMirkhal  13:39-13:40-1m--1-111.036405mSCRPurna, Maharashtra
59PIZPingli (1)  13:49-13:50-1m11-105.751399mSCRParbhani, Maharashtra
60PBNParbhani Junction (3)X  14:03-14:05-2m11-94.773414mSCRParbhani 431401, Maharashtra
61PGPergaon  14:15-14:16-1m--1-82.673441mSCRParbhani, Maharashtra
62DAVDevalgaon Avchar  14:21-14:22-1m--1-76.579425mSCRParbhani, Maharashtra
63MVOManwath Road (2)  14:29-14:30-1m--1-67.354421mSCRParbhani, Maharashtra
64DGPPDhengli PimpalgaonX  14:36-14:37-1m--1-61.926407mSCRSatuna, Maharashtra
65SELUSelu (2)  14:59-15:00-1m--1-52.368436mSCRParbhani, Maharashtra
66SCOSatunaX  15:09-15:10-1m--1-42.153440mSCRSatona, Maharashtra
67UPRUsmanpur  15:19-15:20-1m--1-34.263444mSCRUsmanpur, Maharashtra
68PTUPartur (2)  15:29-15:30-1m--1-24.748465mSCRJalna, Maharashtra
69PDGParadgaon  15:39-15:40-1m--1-17.542454mSCRUsmanpur, Maharashtra
70RNERanjani  15:49-15:50-1m--1-11.275469mSCRJalna, Maharashtra
71KODI»Kodi»X  15:59-16:00-1m--10.066473mSCRRanjani, Maharashtra
72SVDSarwariX  16:09-16:10-1m--110.08493mSCRRanjani, Maharashtra
73JJalna (3)  17:23-17:25-2m--119.781502mSCRJalna, Maharashtra
74BDUBadnapur  17:39-17:40-1m--138.771523mSCRJalna, Maharashtra
75KMVKarmad  17:53-17:54-1m--154.124567mSCRAurangabad, Maharashtra
76CTHChikalthanX  18:04-18:05-1m--158.1-582mSCRAurangabad, Maharashtra
77MKDDMukundwadi Halt (1)X  18:09-18:10-1m1172.411580mSCRAurangabad, Maharashtra
78AWBAurangabad (5)X  19:05-19:10-5m--182.383561mSCRAurangabad 431001, Maharashtra
79DLBDaulatabad (1)  19:19-19:20-1m1194.831575mSCRDaulatabad, Maharashtra
80POZPotul (1)  19:38-19:39-1m11104.1141554mSCRLasur, Maharashtra
81LSRLasur (2)X  19:44-19:45-1m--1115.9101536mSCRAurangabad, Maharashtra
82KAJGKaranjgaonX  19:51-19:52-1m--1126.031523mSCRLasur, Maharashtra
83PSDParsoda  20:01-20:02-1m--1130.762530mSCRRotegaon, Maharashtra
84RGORotegaonX  20:14-20:15-1m--1143.0145547mSCRAurangabad, Maharashtra
85TRTarur  20:24-20:25-1m--1164.811586mSCRTaru, Maharashtra
86NSLNagarsol (2)X  20:59-21:00-1m--1171.011589mSCRDist. Nashik, Maharashtra
87ANKAnkai (3)X  21:54-21:55-1m31181.011620mSCRDist. Nashik, Maharashtra
88MMR•Manmad Junction (6)•  23:05--61193.9-580mCRManmad 423104, Maharashtra
Scroll to Top
Scroll to Bottom